Time;durP1;ratioP1;P1;durP2;ratioP2;P2;SDS_P1;SDS_P2;PMS_P1;PMS_P2;Temp;Humidity;BMP_temperature;BMP_pressure;BME280_temperature;BME280_humidity;BME280_pressure;Samples;Min_cycle;Max_cycle;Signal;HPM_P1;HPM_P2
2021/01/17 13:06:03;;;;;;;31.10;21.13;;;1.80;99.90;;;;;;5065846;28;20225;-82
2021/01/17 13:08:33;;;;;;;31.87;21.60;;;1.90;99.90;;;;;;5079386;28;20293;-80
2021/01/17 13:11:02;;;;;;;25.70;20.13;;;2.00;99.90;;;;;;5110465;28;20206;-85
2021/01/17 13:13:29;;;;;;;26.63;19.93;;;1.90;99.90;;;;;;5077695;28;20287;-81
2021/01/17 13:15:58;;;;;;;27.50;20.57;;;1.90;99.90;;;;;;5076556;28;20745;-81
2021/01/17 13:18:26;;;;;;;33.33;22.67;;;1.80;99.90;;;;;;5075183;28;20281;-82
2021/01/17 13:20:54;;;;;;;28.10;21.00;;;1.80;99.90;;;;;;5076048;28;20222;-81
2021/01/17 13:23:23;;;;;;;29.85;21.55;;;2.00;99.90;;;;;;5075736;28;20214;-82
2021/01/17 13:25:50;;;;;;;29.10;18.63;;;1.80;99.90;;;;;;5076796;28;20225;-82
2021/01/17 13:28:17;;;;;;;27.67;20.90;;;1.70;99.90;;;;;;5081268;28;20253;-82
2021/01/17 13:30:47;;;;;;;26.83;21.80;;;1.50;99.90;;;;;;5080787;28;20230;-82
2021/01/17 13:33:14;;;;;;;28.20;20.50;;;1.60;99.90;;;;;;5076717;28;20219;-81
2021/01/17 13:35:43;;;;;;;26.40;21.20;;;1.70;99.90;;;;;;5077697;28;20229;-82
2021/01/17 13:38:12;;;;;;;25.52;20.23;;;1.40;99.90;;;;;;5076942;28;20267;-82
2021/01/17 13:40:41;;;;;;;25.10;19.63;;;1.20;99.90;;;;;;5073637;28;20317;-79
2021/01/17 13:43:09;;;;;;;29.07;20.43;;;1.10;99.90;;;;;;5075395;28;20221;-79
2021/01/17 13:45:37;;;;;;;30.60;23.03;;;1.20;99.90;;;;;;5076748;28;20611;-81
2021/01/17 13:48:06;;;;;;;28.30;20.33;;;1.30;99.90;;;;;;5077084;28;20283;-80
2021/01/17 13:50:35;;;;;;;27.03;20.87;;;1.20;99.90;;;;;;5059545;28;20298;-80
2021/01/17 13:53:04;;;;;;;29.13;22.17;;;1.10;99.90;;;;;;5077195;28;20221;-79
2021/01/17 13:55:32;;;;;;;28.75;20.95;;;1.00;99.90;;;;;;5088223;28;20224;-83
2021/01/17 13:58:00;;;;;;;30.03;22.23;;;1.00;99.90;;;;;;5093649;28;20211;-80
2021/01/17 14:00:28;;;;;;;28.87;21.57;;;0.80;99.90;;;;;;5086018;28;20238;-80
2021/01/17 14:02:57;;;;;;;30.53;22.30;;;0.80;99.90;;;;;;5081574;28;20232;-79
2021/01/17 14:05:24;;;;;;;27.17;21.17;;;0.80;99.90;;;;;;5073778;28;20211;-80
2021/01/17 14:07:53;;;;;;;29.13;22.35;;;0.90;99.90;;;;;;5072890;28;20218;-81
2021/01/17 14:10:21;;;;;;;30.70;22.83;;;1.00;99.90;;;;;;5073053;28;20221;-80
2021/01/17 14:12:49;;;;;;;29.93;21.53;;;0.90;99.90;;;;;;5075885;28;20233;-80
2021/01/17 14:15:18;;;;;;;33.13;22.50;;;0.90;99.90;;;;;;5076920;28;20217;-81
2021/01/17 14:17:47;;;;;;;28.97;20.97;;;1.00;99.90;;;;;;5077488;28;20214;-80
2021/01/17 14:20:15;;;;;;;29.30;21.70;;;1.00;99.90;;;;;;5092500;28;20225;-85
2021/01/17 14:22:43;;;;;;;33.63;22.30;;;1.00;99.90;;;;;;5095643;28;20210;-84
2021/01/17 14:25:10;;;;;;;27.47;20.73;;;0.90;99.90;;;;;;5095717;28;20194;-82
2021/01/17 14:27:49;;;;;;;33.33;23.70;;;0.90;99.90;;;;;;5184188;27;20336;-82
2021/01/17 14:30:17;;;;;;;26.97;20.50;;;1.00;99.90;;;;;;5142944;27;20259;-83
2021/01/17 14:32:44;;;;;;;30.07;21.93;;;1.00;99.90;;;;;;5153056;27;20275;-82
2021/01/17 14:35:12;;;;;;;29.07;21.40;;;0.90;99.90;;;;;;5170430;27;20259;-80
2021/01/17 14:37:39;;;;;;;30.07;22.53;;;0.90;99.90;;;;;;5139967;27;20283;-81
2021/01/17 14:40:08;;;;;;;28.73;20.43;;;0.90;99.90;;;;;;5135414;27;20230;-80
2021/01/17 14:42:36;;;;;;;29.07;21.53;;;1.00;99.90;;;;;;5136386;27;20689;-78
2021/01/17 14:45:04;;;;;;;31.50;22.33;;;1.10;99.90;;;;;;5118512;27;20216;-80
2021/01/17 14:47:32;;;;;;;29.53;22.30;;;1.00;99.90;;;;;;5134703;27;20284;-80
2021/01/17 14:49:59;;;;;;;30.20;23.13;;;1.20;99.90;;;;;;5119387;27;20216;-80
2021/01/17 14:52:34;;;;;;;32.53;23.80;;;1.20;99.90;;;;;;5153450;27;20207;-81
2021/01/17 14:55:01;;;;;;;31.20;21.40;;;1.20;99.90;;;;;;5117742;27;20241;-80
2021/01/17 14:57:28;;;;;;;33.33;22.85;;;1.00;99.90;;;;;;5133911;27;20227;-80
2021/01/17 14:59:56;;;;;;;32.77;22.50;;;1.00;99.90;;;;;;5152228;27;20212;-81
2021/01/17 15:02:24;;;;;;;30.87;23.87;;;1.00;99.90;;;;;;5153855;27;20239;-80
2021/01/17 15:04:51;;;;;;;32.33;23.87;;;0.90;99.90;;;;;;5131784;27;20705;-79
2021/01/17 15:07:18;;;;;;;28.70;21.43;;;0.80;99.90;;;;;;5114397;28;20228;-81
2021/01/17 15:09:45;;;;;;;30.03;23.00;;;0.90;99.90;;;;;;5131596;28;20225;-81
2021/01/17 15:12:12;;;;;;;30.43;22.93;;;1.00;99.90;;;;;;5117904;28;20221;-80
2021/01/17 15:14:40;;;;;;;33.87;24.73;;;1.00;99.90;;;;;;5130867;27;20229;-80
2021/01/17 15:20:41;;;;;;;30.77;23.37;;;1.20;99.90;;;;;;5115744;28;20509;-85
2021/01/17 15:23:48;;;;;;;30.60;23.67;;;1.30;99.90;;;;;;5095634;28;20220;-85
2021/01/17 15:26:21;;;;;;;32.20;23.85;;;1.20;99.90;;;;;;5127335;28;20216;-82
2021/01/17 15:29:04;;;;;;;31.97;23.17;;;1.30;99.90;;;;;;5103073;28;20212;-86
2021/01/17 15:31:33;;;;;;;30.40;23.60;;;1.30;99.90;;;;;;5127112;28;20236;-85
2021/01/17 15:34:54;;;;;;;30.40;23.52;;;1.30;99.90;;;;;;5093244;28;20201;-86
2021/01/17 15:37:48;;;;;;;30.77;22.30;;;1.40;99.90;;;;;;5004090;23;20238;-84
2021/01/17 15:40:16;;;;;;;32.83;24.00;;;1.40;99.90;;;;;;4955127;28;20272;-80
2021/01/17 15:42:44;;;;;;;29.03;21.27;;;1.40;99.90;;;;;;4947959;28;20232;-84
2021/01/17 15:45:12;;;;;;;34.70;22.03;;;1.40;99.90;;;;;;4963544;28;20210;-83
2021/01/17 15:47:39;;;;;;;30.80;23.47;;;1.40;99.90;;;;;;4962564;28;20229;-83
2021/01/17 15:50:10;;;;;;;29.40;21.63;;;1.30;99.90;;;;;;4962852;28;20228;-83
2021/01/17 15:52:37;;;;;;;30.87;23.00;;;1.40;99.90;;;;;;4963806;28;20293;-82
2021/01/17 15:55:06;;;;;;;33.17;24.57;;;1.30;99.90;;;;;;4963599;28;20222;-80
2021/01/17 15:57:32;;;;;;;32.57;23.90;;;1.30;99.90;;;;;;4981838;28;20229;-83
2021/01/17 16:00:01;;;;;;;29.90;23.40;;;1.30;99.90;;;;;;4982615;28;20205;-81
2021/01/17 16:02:33;;;;;;;30.70;22.93;;;1.20;99.90;;;;;;4980836;28;20206;-81
2021/01/17 16:05:00;;;;;;;31.30;22.83;;;1.10;99.90;;;;;;4981391;28;20577;-81
2021/01/17 16:07:27;;;;;;;28.63;20.83;;;1.10;99.90;;;;;;4981436;28;20221;-82
2021/01/17 16:09:54;;;;;;;30.15;22.55;;;1.10;99.90;;;;;;4980898;28;20210;-81
2021/01/17 16:12:21;;;;;;;31.07;23.57;;;1.10;99.90;;;;;;4980899;28;20694;-82
2021/01/17 16:14:48;;;;;;;33.37;24.40;;;1.00;99.90;;;;;;4982008;28;20225;-81
2021/01/17 16:17:15;;;;;;;30.87;23.53;;;0.90;99.90;;;;;;4964544;28;20730;-82
2021/01/17 16:19:43;;;;;;;31.27;23.43;;;0.80;99.90;;;;;;4984178;28;20249;-81
2021/01/17 16:22:10;;;;;;;32.53;24.67;;;0.80;99.90;;;;;;4980729;28;20222;-79
2021/01/17 16:24:36;;;;;;;35.37;26.20;;;0.80;99.90;;;;;;4977947;28;20241;-81
2021/01/17 16:27:05;;;;;;;35.80;26.00;;;0.80;99.90;;;;;;4977717;28;20232;-82
2021/01/17 16:29:32;;;;;;;32.80;24.47;;;0.70;99.90;;;;;;4978914;28;20228;-81
2021/01/17 16:31:59;;;;;;;33.83;25.03;;;0.70;99.90;;;;;;4980991;28;20360;-83
2021/01/17 16:34:27;;;;;;;31.77;23.73;;;0.70;99.90;;;;;;4981220;28;20225;-83
2021/01/17 16:37:02;;;;;;;35.37;25.63;;;0.70;99.90;;;;;;4968518;28;20260;-85
2021/01/17 16:39:33;;;;;;;34.67;24.83;;;0.90;99.90;;;;;;4983681;28;20445;-82
2021/01/17 16:42:03;;;;;;;35.43;24.23;;;1.00;99.90;;;;;;4978938;28;20221;-82
2021/01/17 16:44:30;;;;;;;39.20;28.07;;;1.20;99.90;;;;;;4981753;28;20705;-84
2021/01/17 16:46:58;;;;;;;37.93;25.90;;;1.40;99.90;;;;;;4979991;28;20220;-83
2021/01/17 16:49:25;;;;;;;39.90;27.77;;;1.10;99.90;;;;;;4975453;28;20233;-84
2021/01/17 16:51:55;;;;;;;36.80;25.67;;;1.30;99.90;;;;;;4965805;28;20288;-84
2021/01/17 16:54:22;;;;;;;39.53;26.90;;;1.00;99.90;;;;;;4989358;28;20197;-84
2021/01/17 16:56:53;;;;;;;39.80;28.37;;;1.20;99.90;;;;;;4996372;28;20342;-85
2021/01/17 16:59:21;;;;;;;40.20;28.00;;;1.30;99.90;;;;;;4986873;28;20241;-83
2021/01/17 17:01:48;;;;;;;34.83;25.57;;;1.30;99.90;;;;;;4981693;28;20240;-83
2021/01/17 17:04:16;;;;;;;31.90;23.77;;;1.50;99.90;;;;;;4981891;28;20211;-83
2021/01/17 17:06:43;;;;;;;29.93;22.83;;;1.40;99.90;;;;;;4965523;28;20236;-83
2021/01/17 17:09:10;;;;;;;31.50;24.20;;;1.30;99.90;;;;;;4981622;28;20235;-84
2021/01/17 17:11:38;;;;;;;31.57;23.13;;;1.30;99.90;;;;;;4984452;28;20743;-82
2021/01/17 17:14:07;;;;;;;33.43;23.97;;;1.40;99.90;;;;;;4986685;28;20221;-81
2021/01/17 17:16:34;;;;;;;34.40;24.80;;;1.40;99.90;;;;;;4967559;28;20229;-81
2021/01/17 17:19:01;;;;;;;32.93;23.87;;;1.30;99.90;;;;;;4980933;28;20736;-81
2021/01/17 17:21:30;;;;;;;33.30;23.90;;;1.50;99.90;;;;;;4981442;28;20194;-81
2021/01/17 17:24:02;;;;;;;33.63;25.73;;;1.50;99.90;;;;;;4964748;28;20268;-82
2021/01/17 17:26:31;;;;;;;34.47;24.80;;;1.60;99.90;;;;;;4981349;28;20229;-81
2021/01/17 17:29:01;;;;;;;32.83;23.40;;;1.50;99.90;;;;;;4980925;28;20591;-81
2021/01/17 17:31:28;;;;;;;32.73;24.10;;;1.40;99.90;;;;;;4979554;28;20242;-81
2021/01/17 17:33:56;;;;;;;33.13;25.37;;;1.30;99.90;;;;;;4981695;28;20656;-81
2021/01/17 17:36:23;;;;;;;33.87;24.13;;;1.10;99.90;;;;;;4982735;28;20263;-80
2021/01/17 17:38:51;;;;;;;32.37;25.27;;;1.00;99.90;;;;;;4981832;28;20731;-82
2021/01/17 17:41:19;;;;;;;34.77;26.83;;;1.00;99.90;;;;;;4972951;28;20217;-78
2021/01/17 17:43:48;;;;;;;37.03;26.70;;;0.80;99.90;;;;;;4962601;28;20221;-80
2021/01/17 17:46:22;;;;;;;38.03;26.70;;;0.70;99.90;;;;;;4978201;28;20224;-79
2021/01/17 17:48:48;;;;;;;36.40;29.03;;;0.70;99.90;;;;;;4978583;28;20225;-79
2021/01/17 17:51:16;;;;;;;40.63;27.83;;;0.60;99.90;;;;;;4961566;28;20218;-79
2021/01/17 17:53:43;;;;;;;36.90;26.23;;;0.60;99.90;;;;;;4978797;28;20869;-79
2021/01/17 17:56:12;;;;;;;41.50;29.20;;;0.60;99.90;;;;;;4978669;28;20681;-80
2021/01/17 17:58:41;;;;;;;43.37;30.57;;;0.50;99.90;;;;;;4973961;28;20217;-78
2021/01/17 18:01:17;;;;;;;41.13;28.53;;;0.50;99.90;;;;;;4972274;28;20252;-82
2021/01/17 18:03:50;;;;;;;39.67;28.53;;;0.40;99.90;;;;;;4980131;28;20221;-83
2021/01/17 18:06:23;;;;;;;42.97;29.23;;;0.60;99.90;;;;;;4961689;28;20225;-82
2021/01/17 18:08:56;;;;;;;42.30;30.40;;;0.40;99.90;;;;;;4976569;28;20333;-82
2021/01/17 18:11:28;;;;;;;43.33;29.40;;;0.30;99.90;;;;;;4977978;28;20221;-82
2021/01/17 18:13:59;;;;;;;40.23;30.57;;;0.60;99.90;;;;;;4978808;28;20216;-82
2021/01/17 18:16:29;;;;;;;43.87;29.07;;;0.60;99.90;;;;;;4978467;28;20229;-81
2021/01/17 18:19:02;;;;;;;40.63;28.80;;;0.60;99.90;;;;;;4975889;28;20228;-80
2021/01/17 18:21:31;;;;;;;44.87;31.60;;;0.70;99.90;;;;;;4961667;28;20216;-80
2021/01/17 18:23:58;;;;;;;46.27;32.83;;;0.60;99.90;;;;;;4981594;28;20614;-82
2021/01/17 18:26:27;;;;;;;45.80;31.33;;;0.60;99.90;;;;;;4979306;28;20235;-81
2021/01/17 18:28:54;;;;;;;46.60;31.47;;;0.60;99.90;;;;;;4980031;28;20595;-81
2021/01/17 18:31:22;;;;;;;42.53;30.00;;;0.60;99.90;;;;;;4962180;28;20209;-83
2021/01/17 18:33:49;;;;;;;41.93;29.77;;;0.60;99.90;;;;;;4978598;28;20229;-80
2021/01/17 18:36:15;;;;;;;50.17;31.77;;;0.60;99.90;;;;;;4980361;28;20232;-84
2021/01/17 18:38:43;;;;;;;40.47;29.53;;;0.60;99.90;;;;;;4985461;28;20245;-86
2021/01/17 18:41:10;;;;;;;46.47;32.20;;;0.50;99.90;;;;;;4976759;28;20235;-86
2021/01/17 18:43:39;;;;;;;42.97;31.80;;;0.50;99.90;;;;;;5008887;28;20224;-86
2021/01/17 18:46:13;;;;;;;44.87;34.20;;;0.50;99.90;;;;;;4998303;28;20227;-86
2021/01/17 18:48:40;;;;;;;50.37;31.97;;;0.50;99.90;;;;;;5011980;28;20221;-83
2021/01/17 18:51:07;;;;;;;48.30;32.23;;;0.40;99.90;;;;;;4995421;28;20300;-82
2021/01/17 18:53:36;;;;;;;48.13;33.90;;;0.50;99.90;;;;;;4995476;28;20298;-81
2021/01/17 18:56:03;;;;;;;44.60;30.67;;;0.40;99.90;;;;;;4993818;28;20211;-81
2021/01/17 18:58:34;;;;;;;47.73;32.50;;;0.40;99.90;;;;;;4991232;28;20227;-81
2021/01/17 19:01:05;;;;;;;51.57;35.73;;;0.40;99.90;;;;;;4983868;28;20247;-81
2021/01/17 19:03:36;;;;;;;53.37;34.67;;;0.20;99.90;;;;;;4980309;28;20708;-81
2021/01/17 19:06:03;;;;;;;50.07;35.30;;;0.00;99.90;;;;;;4980508;28;20347;-79
2021/01/17 19:08:30;;;;;;;49.63;35.90;;;0.20;99.90;;;;;;4959152;28;20237;-81
2021/01/17 19:10:57;;;;;;;50.87;33.57;;;0.20;99.90;;;;;;4977767;28;20224;-81
2021/01/17 19:13:32;;;;;;;56.00;35.63;;;0.20;99.90;;;;;;4992481;28;20217;-82
2021/01/17 19:15:59;;;;;;;51.50;35.10;;;0.20;99.90;;;;;;4987587;28;20727;-81
2021/01/17 19:18:28;;;;;;;56.60;36.30;;;0.20;99.90;;;;;;4981207;28;20221;-81
2021/01/17 19:20:55;;;;;;;60.80;41.63;;;0.20;99.90;;;;;;4979534;28;20241;-81
2021/01/17 19:26:10;;;;;;;60.30;38.07;;;0.30;99.90;;;;;;4980616;28;20264;-80
2021/01/17 19:28:37;;;;;;;54.40;36.77;;;0.20;99.90;;;;;;4980099;28;20291;-81
2021/01/17 19:31:05;;;;;;;61.23;37.83;;;0.10;99.90;;;;;;4962716;28;20218;-81
2021/01/17 19:33:33;;;;;;;54.90;37.53;;;-0.10;99.90;;;;;;4977836;28;20581;-80
2021/01/17 19:36:00;;;;;;;52.67;34.17;;;0.20;99.90;;;;;;4977644;28;20225;-80
2021/01/17 19:38:27;;;;;;;56.13;35.93;;;0.20;99.90;;;;;;4963082;28;20236;-81
2021/01/17 19:40:54;;;;;;;57.60;38.63;;;0.30;99.90;;;;;;4981136;28;20213;-81
2021/01/17 19:43:22;;;;;;;64.07;42.97;;;0.20;99.90;;;;;;4963393;28;20267;-79
2021/01/17 19:45:52;;;;;;;57.20;37.13;;;0.20;99.90;;;;;;4978331;28;20236;-80
2021/01/17 19:48:20;;;;;;;61.43;42.53;;;0.30;99.90;;;;;;4962088;28;20220;-79
2021/01/17 19:50:48;;;;;;;64.00;40.67;;;0.30;99.90;;;;;;4979125;28;20311;-80
2021/01/17 19:53:15;;;;;;;59.40;39.47;;;0.40;99.90;;;;;;4960456;28;20298;-80
2021/01/17 19:55:43;;;;;;;54.43;36.47;;;0.40;99.90;;;;;;4977351;28;20727;-81
2021/01/17 19:58:11;;;;;;;54.27;37.53;;;0.40;99.90;;;;;;4977859;28;20229;-81
2021/01/17 20:00:39;;;;;;;53.57;34.57;;;0.40;99.90;;;;;;4977663;28;20220;-80
2021/01/17 20:03:08;;;;;;;50.53;36.47;;;0.50;99.90;;;;;;4975985;28;20605;-79
2021/01/17 20:05:39;;;;;;;53.00;35.80;;;0.20;99.90;;;;;;4979933;28;20738;-82
2021/01/17 20:08:07;;;;;;;52.97;33.30;;;0.40;99.90;;;;;;4996690;28;20208;-82
2021/01/17 20:10:35;;;;;;;58.27;37.47;;;0.20;99.90;;;;;;4992294;28;20702;-80
2021/01/17 20:13:09;;;;;;;52.30;36.40;;;0.40;99.90;;;;;;4976803;28;20310;-81
2021/01/17 20:15:52;;;;;;;54.63;34.43;;;0.50;99.90;;;;;;4978626;28;20228;-80
2021/01/17 20:18:19;;;;;;;51.73;34.33;;;0.20;99.90;;;;;;4977689;28;20210;-80
2021/01/17 20:20:59;;;;;;;45.30;31.60;;;0.50;99.90;;;;;;4977572;28;20220;-80
2021/01/17 20:23:27;;;;;;;52.70;36.43;;;0.50;99.90;;;;;;4979822;28;20224;-76
2021/01/17 20:25:54;;;;;;;45.00;31.63;;;0.50;99.90;;;;;;4973475;28;20300;-80
2021/01/17 20:28:22;;;;;;;49.07;34.20;;;0.50;99.90;;;;;;4991684;28;20205;-80
2021/01/17 20:30:49;;;;;;;46.20;32.00;;;0.60;99.90;;;;;;4960276;28;20249;-81
2021/01/17 20:33:17;;;;;;;48.87;32.53;;;0.60;99.90;;;;;;4977753;28;20221;-80
2021/01/17 20:35:45;;;;;;;52.07;32.83;;;0.50;99.90;;;;;;4981423;28;20224;-80
2021/01/17 20:38:12;;;;;;;47.00;32.53;;;0.50;99.90;;;;;;4977658;28;20237;-80
2021/01/17 20:40:43;;;;;;;54.17;35.93;;;0.50;99.90;;;;;;4959033;28;20617;-79
2021/01/17 21:08:07;;;;;;;72.97;46.17;;;0.30;99.90;;;;;;4976411;28;20225;-80
2021/01/17 21:10:44;;;;;;;66.23;43.67;;;0.30;99.90;;;;;;4975904;28;20224;-79
2021/01/17 21:13:10;;;;;;;67.57;42.20;;;0.30;99.90;;;;;;4977261;28;20213;-82
2021/01/17 21:15:37;;;;;;;71.53;44.00;;;0.40;99.90;;;;;;4974979;28;20233;-80
2021/01/17 21:18:06;;;;;;;67.17;43.63;;;0.40;99.90;;;;;;4959146;28;20240;-81
2021/01/17 21:20:38;;;;;;;69.30;43.87;;;0.40;99.90;;;;;;4961633;28;20221;-80
2021/01/17 21:23:05;;;;;;;68.40;42.17;;;0.50;99.90;;;;;;4978418;28;20657;-79
2021/01/17 21:25:33;;;;;;;72.40;46.53;;;0.40;99.90;;;;;;4973807;28;20713;-79
2021/01/17 21:28:00;;;;;;;70.17;42.53;;;0.50;99.90;;;;;;4976069;28;20232;-80
2021/01/17 21:30:28;;;;;;;69.33;41.83;;;0.50;99.90;;;;;;4976146;28;20596;-79
2021/01/17 21:32:55;;;;;;;72.37;44.93;;;0.60;99.90;;;;;;4956463;28;20229;-79
2021/01/17 21:35:22;;;;;;;67.27;41.67;;;0.60;99.90;;;;;;4976537;28;20213;-80
2021/01/17 21:37:48;;;;;;;61.43;41.60;;;0.60;99.90;;;;;;4981976;28;20225;-81
2021/01/17 21:40:18;;;;;;;62.67;40.70;;;0.50;99.90;;;;;;4961009;28;20244;-80
2021/01/17 21:42:50;;;;;;;65.80;41.63;;;0.50;99.90;;;;;;4993429;28;20637;-82
2021/01/17 21:45:26;;;;;;;63.40;41.10;;;0.50;99.90;;;;;;5002358;28;20260;-84
2021/01/17 21:47:54;;;;;;;69.90;42.90;;;0.50;99.90;;;;;;5007893;28;20243;-84
2021/01/17 21:50:26;;;;;;;72.00;44.73;;;0.60;99.90;;;;;;4984886;28;20217;-81
2021/01/17 21:52:56;;;;;;;62.03;40.33;;;0.60;99.90;;;;;;5001019;28;20243;-85
2021/01/17 21:55:31;;;;;;;64.77;40.77;;;0.60;99.90;;;;;;4971470;28;20231;-81
2021/01/17 21:58:01;;;;;;;58.23;40.30;;;0.90;99.90;;;;;;4986297;28;20220;-84
2021/01/17 22:00:29;;;;;;;58.67;38.87;;;0.90;99.90;;;;;;5001577;28;20213;-76
2021/01/17 22:03:26;;;;;;;58.77;39.03;;;0.80;99.90;;;;;;4993899;28;20233;-77
2021/01/17 22:05:53;;;;;;;57.27;37.90;;;0.90;99.90;;;;;;4983103;28;20264;-75
2021/01/17 22:08:20;;;;;;;66.70;40.83;;;0.90;99.90;;;;;;4975265;28;20244;-76
2021/01/17 22:10:47;;;;;;;52.80;34.87;;;0.90;99.90;;;;;;4979815;28;20299;-75
2021/01/17 22:13:15;;;;;;;60.00;38.20;;;0.90;99.90;;;;;;4971692;28;20327;-75
2021/01/17 22:15:45;;;;;;;55.90;35.13;;;1.00;99.90;;;;;;4957485;28;20229;-76
2021/01/17 22:18:13;;;;;;;59.10;35.73;;;1.10;99.90;;;;;;4972082;28;20214;-76
2021/01/17 22:21:01;;;;;;;53.30;33.60;;;1.10;99.90;;;;;;4970849;28;20239;-77
2021/01/17 22:23:34;;;;;;;59.47;36.77;;;1.00;99.90;;;;;;4988896;28;20214;-75
2021/01/17 22:26:10;;;;;;;54.00;36.63;;;1.00;99.90;;;;;;4994330;28;20216;-81
2021/01/17 22:28:44;;;;;;;56.80;35.87;;;1.10;99.90;;;;;;4996823;28;20295;-82
2021/01/17 22:31:25;;;;;;;51.73;33.83;;;0.90;99.90;;;;;;4990180;28;20216;-82
2021/01/17 22:34:31;;;;;;;48.27;32.80;;;1.00;99.90;;;;;;4960225;28;20206;-82
2021/01/17 22:37:38;;;;;;;45.93;30.97;;;1.10;99.90;;;;;;4985657;28;20252;-81
2021/01/17 22:40:07;;;;;;;49.67;32.80;;;1.10;99.90;;;;;;4976203;28;20221;-82
2021/01/17 22:42:35;;;;;;;49.47;34.00;;;1.20;99.90;;;;;;4986756;28;20229;-81
2021/01/17 22:45:04;;;;;;;50.43;31.63;;;1.20;99.90;;;;;;4987820;28;20225;-82
2021/01/17 22:47:31;;;;;;;39.67;28.03;;;1.30;99.90;;;;;;4989183;28;20265;-81
2021/01/17 22:49:59;;;;;;;43.43;29.33;;;1.30;99.90;;;;;;4976320;28;20235;-81
2021/01/17 22:52:26;;;;;;;42.20;29.10;;;1.40;99.90;;;;;;4997525;28;20193;-82
2021/01/17 22:54:53;;;;;;;49.00;32.00;;;1.30;99.90;;;;;;4982075;28;20240;-82
2021/01/17 22:57:21;;;;;;;44.03;29.90;;;1.40;99.90;;;;;;4994136;28;20242;-81
2021/01/17 22:59:49;;;;;;;42.30;29.40;;;1.30;99.90;;;;;;4976355;28;20237;-82
2021/01/17 23:02:18;;;;;;;44.07;28.87;;;1.40;99.90;;;;;;4976848;28;20221;-81
2021/01/17 23:04:45;;;;;;;46.30;29.17;;;1.40;99.90;;;;;;4982729;28;20213;-82
2021/01/17 23:07:15;;;;;;;43.07;27.20;;;1.30;99.90;;;;;;4999572;28;20292;-82
2021/01/17 23:09:43;;;;;;;38.60;27.93;;;1.30;99.90;;;;;;4999282;28;20252;-82
2021/01/17 23:12:11;;;;;;;40.67;27.70;;;1.40;99.90;;;;;;4999307;28;20277;-82
2021/01/17 23:14:44;;;;;;;45.00;28.57;;;1.40;99.90;;;;;;4983089;28;20207;-81
2021/01/17 23:17:17;;;;;;;43.83;28.00;;;1.40;99.90;;;;;;4999770;28;20264;-82
2021/01/17 23:19:44;;;;;;;43.40;28.50;;;1.50;99.90;;;;;;4995109;28;20695;-82
2021/01/17 23:22:15;;;;;;;35.47;26.23;;;1.50;99.90;;;;;;4988378;28;20224;-81
2021/01/17 23:24:42;;;;;;;40.40;29.20;;;1.50;99.90;;;;;;4990406;28;20224;-81
2021/01/17 23:27:10;;;;;;;45.13;29.27;;;1.40;99.90;;;;;;4971332;28;20233;-81
2021/01/17 23:29:37;;;;;;;49.43;31.77;;;1.40;99.90;;;;;;4989873;28;20233;-82
2021/01/17 23:32:05;;;;;;;50.00;30.80;;;1.50;99.90;;;;;;4990737;28;20232;-81
2021/01/17 23:34:33;;;;;;;45.17;29.77;;;1.50;99.90;;;;;;4989952;28;20273;-81
2021/01/17 23:37:03;;;;;;;47.83;30.50;;;1.40;99.90;;;;;;4985280;28;20244;-81
2021/01/17 23:39:30;;;;;;;49.37;30.33;;;1.50;99.90;;;;;;4990127;28;20578;-79
2021/01/17 23:41:58;;;;;;;46.13;30.17;;;1.30;99.90;;;;;;4973227;28;20723;-81
2021/01/17 23:44:27;;;;;;;48.70;30.37;;;1.30;99.90;;;;;;4991523;28;20225;-81
2021/01/17 23:46:57;;;;;;;47.70;32.10;;;1.20;99.90;;;;;;4992766;28;20314;-82
2021/01/17 23:49:26;;;;;;;48.57;31.10;;;1.20;99.90;;;;;;4992048;28;20302;-80
2021/01/17 23:51:54;;;;;;;53.03;33.07;;;1.20;99.90;;;;;;4990851;28;20705;-81
2021/01/17 23:54:21;;;;;;;47.10;31.30;;;1.20;99.90;;;;;;4990180;28;20222;-81
2021/01/17 23:56:48;;;;;;;51.80;29.83;;;1.20;99.90;;;;;;4989877;28;20236;-81
2021/01/17 23:59:17;;;;;;;50.38;31.63;;;1.30;99.90;;;;;;4988412;28;20218;-81
